Shearwater — 3ESK5 — position and weather

sailwx.info

Track history (hours):
 
Tides and Currents Weather Stations Pressure Air Temp Water Temp Dewpoint Dewpoint Depression Visibility Wind Speed Wind Dir Waves Ship Positions

Shearwater

Last reported at 2017-Aug-17 01:55 UTC. Time now 2017-Aug-17 21:34 UTC.
Position S 33°07' E 152°29'.

Length 210 m; draft 6.9 m.

Type: Cargo ship. MMSI: 370338000.

Date/timePositionNaut miles runAvg speedWind from/ knotsBaromVisibWave heightAir tempDewpointWater temp
2017-Aug-17 01:55S 33°07' E 152°29'1412.0
2017-Aug-17 00:45S 32°55' E 152°36'311.6
2017-Aug-17 00:30S 32°52' E 152°37'611.5
2017-Aug-17 00:00S 32°47' E 152°41'611.1
2017-Aug-16 23:30S 32°42' E 152°43'611.5
2017-Aug-16 23:01S 32°37' E 152°46'612.1
2017-Aug-16 22:30S 32°31' E 152°48'612.4
2017-Aug-16 22:00S 32°25' E 152°50'712.9
2017-Aug-16 21:30S 32°19' E 152°52'713.0
2017-Aug-16 20:58S 32°12' E 152°55'26714.2
2017-Aug-16 02:07S 27°50' E 153°53'216.0
2017-Aug-16 02:00S 27°48' E 153°53'1016.0
2017-Aug-16 01:24S 27°38' E 153°54'615.7
2017-Aug-16 01:00S 27°32' E 153°54'815.6
2017-Aug-16 00:30S 27°24' E 153°54'815.6
2017-Aug-16 00:01S 27°16' E 153°54'815.7
2017-Aug-15 23:31S 27°09' E 153°55'815.0
2017-Aug-15 23:00S 27°01' E 153°55'714.7
2017-Aug-15 22:30S 26°54' E 153°55'714.9
2017-Aug-15 22:01S 26°46' E 153°56'815.7
2017-Aug-15 21:31S 26°38' E 153°56'915.8
2017-Aug-15 20:56S 26°29' E 153°56'715.5
2017-Aug-15 20:29S 26°22' E 153°56'815.9
2017-Aug-15 19:59S 26°14' E 153°56'816.1
2017-Aug-15 19:31S 26°07' E 153°56'915.9
2017-Aug-15 18:58S 25°58' E 153°56'815.4
2017-Aug-15 18:26S 25°50' E 153°57'  
Track history (hours):
 
Tides and Currents Weather Stations Pressure Air Temp Water Temp Dewpoint Dewpoint Depression Visibility Wind Speed Wind Dir Waves Ship Positions

Shearwater

Last reported at 2017-Aug-17 01:55 UTC. Time now 2017-Aug-17 21:34 UTC.
Position S 33°07' E 152°29'.

Length 210 m; draft 6.9 m.

Type: Cargo ship. MMSI: 370338000.

Date/timePositionNaut miles runAvg speedWind from/ knotsBaromVisibWave heightAir tempDewpointWater temp
2017-Aug-17 01:55S 33°07' E 152°29'1412.0
2017-Aug-17 00:45S 32°55' E 152°36'311.6
2017-Aug-17 00:30S 32°52' E 152°37'611.5
2017-Aug-17 00:00S 32°47' E 152°41'611.1
2017-Aug-16 23:30S 32°42' E 152°43'611.5
2017-Aug-16 23:01S 32°37' E 152°46'612.1
2017-Aug-16 22:30S 32°31' E 152°48'612.4
2017-Aug-16 22:00S 32°25' E 152°50'712.9
2017-Aug-16 21:30S 32°19' E 152°52'713.0
2017-Aug-16 20:58S 32°12' E 152°55'26714.2
2017-Aug-16 02:07S 27°50' E 153°53'216.0
2017-Aug-16 02:00S 27°48' E 153°53'1016.0
2017-Aug-16 01:24S 27°38' E 153°54'615.7
2017-Aug-16 01:00S 27°32' E 153°54'815.6
2017-Aug-16 00:30S 27°24' E 153°54'815.6
2017-Aug-16 00:01S 27°16' E 153°54'815.7
2017-Aug-15 23:31S 27°09' E 153°55'815.0
2017-Aug-15 23:00S 27°01' E 153°55'714.7
2017-Aug-15 22:30S 26°54' E 153°55'714.9
2017-Aug-15 22:01S 26°46' E 153°56'815.7
2017-Aug-15 21:31S 26°38' E 153°56'915.8
2017-Aug-15 20:56S 26°29' E 153°56'715.5
2017-Aug-15 20:29S 26°22' E 153°56'815.9
2017-Aug-15 19:59S 26°14' E 153°56'816.1
2017-Aug-15 19:31S 26°07' E 153°56'915.9
2017-Aug-15 18:58S 25°58' E 153°56'815.4
2017-Aug-15 18:26S 25°50' E 153°57'  

Dump ship's entire track history